createdAt,value
2022-12-13T00:01:51.046Z,12.10
2022-12-13T00:04:57.054Z,12.67
2022-12-13T00:08:01.113Z,12.03
2022-12-13T00:11:08.097Z,13.67
2022-12-13T00:14:14.820Z,13.53
2022-12-13T00:17:19.191Z,14.03
2022-12-13T00:20:22.509Z,13.13
2022-12-13T00:23:26.110Z,14.17
2022-12-13T00:26:32.604Z,14.30
2022-12-13T00:29:35.864Z,13.90
2022-12-13T00:32:40.226Z,14.37
2022-12-13T00:35:43.649Z,14.17
2022-12-13T00:38:46.821Z,14.10
2022-12-13T00:41:50.235Z,13.10
2022-12-13T00:44:55.830Z,14.83
2022-12-13T00:48:01.942Z,14.10
2022-12-13T00:51:08.603Z,13.90
2022-12-13T00:54:11.993Z,14.40
2022-12-13T00:57:15.061Z,15.23
2022-12-13T01:00:18.480Z,15.00
2022-12-13T01:03:25.520Z,15.13
2022-12-13T01:06:34.089Z,13.90
2022-12-13T01:09:39.487Z,14.60
2022-12-13T01:12:42.961Z,15.17
2022-12-13T01:15:48.032Z,15.83
2022-12-13T01:18:52.588Z,13.23
2022-12-13T01:21:55.648Z,14.80
2022-12-13T01:24:58.636Z,13.83
2022-12-13T01:28:01.678Z,13.67
2022-12-13T01:31:08.212Z,14.00
2022-12-13T01:34:14.017Z,13.20
2022-12-13T01:37:17.929Z,12.50
2022-12-13T01:40:22.865Z,13.20
2022-12-13T01:43:51.856Z,13.07
2022-12-13T01:46:55.094Z,14.50
2022-12-13T01:50:04.339Z,12.73
2022-12-13T01:53:09.300Z,12.30
2022-12-13T01:56:18.117Z,12.47
2022-12-13T01:59:22.961Z,14.37
2022-12-13T02:02:26.046Z,13.90
2022-12-13T02:05:37.444Z,13.83
2022-12-13T02:08:43.883Z,15.27
2022-12-13T02:11:47.392Z,15.90
2022-12-13T02:14:50.630Z,16.23
2022-12-13T02:18:19.342Z,14.43
2022-12-13T02:21:34.545Z,15.23
2022-12-13T02:25:03.631Z,14.20
2022-12-13T02:28:31.807Z,14.93
2022-12-13T02:31:45.749Z,14.77
2022-12-13T02:34:55.612Z,14.97
2022-12-13T02:38:04.822Z,13.50
2022-12-13T02:41:16.305Z,13.90
2022-12-13T02:44:23.853Z,14.60
2022-12-13T02:47:30.275Z,15.00
2022-12-13T02:50:34.647Z,14.53
2022-12-13T02:53:39.730Z,15.57
2022-12-13T02:56:42.668Z,15.50
2022-12-13T02:59:45.750Z,16.07
2022-12-13T03:03:08.272Z,16.40
2022-12-13T03:06:33.684Z,14.57
2022-12-13T03:09:50.405Z,15.07
2022-12-13T03:13:15.825Z,14.57
2022-12-13T03:16:29.626Z,14.87
2022-12-13T03:19:34.272Z,15.43
2022-12-13T03:22:37.564Z,16.40
2022-12-13T03:25:41.160Z,16.93
2022-12-13T03:28:44.166Z,15.43
2022-12-13T03:31:47.537Z,15.43
2022-12-13T03:35:00.662Z,16.33
2022-12-13T03:38:05.509Z,16.87
2022-12-13T03:41:12.447Z,16.03
2022-12-13T03:44:15.762Z,15.40
2022-12-13T03:47:18.947Z,16.53
2022-12-13T03:50:27.050Z,16.40
2022-12-13T03:53:33.521Z,17.00
2022-12-13T03:56:37.246Z,17.60
2022-12-13T03:59:40.640Z,16.03
2022-12-13T04:02:43.663Z,15.80
2022-12-13T04:05:49.296Z,15.23
2022-12-13T04:08:52.962Z,16.40
2022-12-13T04:12:13.900Z,16.73
2022-12-13T04:15:17.551Z,16.63
2022-12-13T04:18:21.202Z,16.27
2022-12-13T04:21:28.226Z,16.20
2022-12-13T04:24:32.313Z,16.97
2022-12-13T04:27:38.344Z,16.77
2022-12-13T04:30:41.341Z,15.33
2022-12-13T04:33:44.310Z,15.57
2022-12-13T04:36:48.597Z,16.00
2022-12-13T04:39:51.566Z,15.70
2022-12-13T04:43:04.005Z,15.20
2022-12-13T04:46:08.591Z,16.83
2022-12-13T04:49:11.628Z,14.87
2022-12-13T04:52:21.973Z,15.30
2022-12-13T04:55:25.771Z,15.80
2022-12-13T04:58:28.887Z,15.23
2022-12-13T05:01:31.943Z,15.23
2022-12-13T05:04:36.197Z,15.10
2022-12-13T05:07:42.132Z,15.00
2022-12-13T05:10:45.845Z,14.97
2022-12-13T05:13:48.930Z,14.43
2022-12-13T05:16:55.440Z,14.77
2022-12-13T05:19:58.463Z,16.47
2022-12-13T05:23:03.009Z,16.10
2022-12-13T05:26:06.605Z,13.70
2022-12-13T05:29:09.695Z,14.93
2022-12-13T05:32:12.792Z,13.77
2022-12-13T05:35:23.576Z,14.00
2022-12-13T05:38:28.311Z,13.13
2022-12-13T05:41:35.067Z,14.07
2022-12-13T05:44:38.093Z,15.53
2022-12-13T05:47:41.229Z,13.70
2022-12-13T05:50:44.185Z,13.33
2022-12-13T05:53:53.162Z,13.77
2022-12-13T05:56:56.815Z,12.53
2022-12-13T06:00:00.028Z,13.17
2022-12-13T06:03:03.104Z,13.10
2022-12-13T06:06:08.539Z,13.20
2022-12-13T06:09:12.827Z,14.27
2022-12-13T06:12:31.718Z,14.17
2022-12-13T06:15:35.603Z,13.97
2022-12-13T06:18:48.347Z,15.60
2022-12-13T06:21:55.867Z,14.83
2022-12-13T06:25:01.551Z,14.43
2022-12-13T06:28:05.031Z,13.40
2022-12-13T06:31:08.070Z,14.17
2022-12-13T06:34:14.307Z,14.47
2022-12-13T06:37:20.588Z,15.23
2022-12-13T06:40:26.433Z,14.20
2022-12-13T06:43:31.786Z,13.37
2022-12-13T06:46:35.265Z,14.37
2022-12-13T06:49:38.394Z,14.93
2022-12-13T06:52:41.374Z,14.10
2022-12-13T06:55:45.943Z,15.27
2022-12-13T06:58:48.948Z,15.70
2022-12-13T07:01:52.002Z,15.70
2022-12-13T07:04:56.424Z,14.83
2022-12-13T07:07:59.525Z,17.17
2022-12-13T07:11:05.321Z,14.40
2022-12-13T07:14:08.838Z,15.87
2022-12-13T07:17:11.781Z,15.73
2022-12-13T07:20:15.842Z,17.30
2022-12-13T07:23:18.851Z,15.23
2022-12-13T07:30:53.275Z,14.87
2022-12-13T07:33:56.359Z,17.13
2022-12-13T07:36:59.411Z,16.33
2022-12-13T07:40:04.753Z,16.60
2022-12-13T07:43:11.851Z,17.50
2022-12-13T07:46:15.432Z,17.53
2022-12-13T07:49:18.408Z,16.67
2022-12-13T07:52:21.333Z,16.50
2022-12-13T07:55:33.559Z,17.40
2022-12-13T07:58:42.057Z,17.10
2022-12-13T08:01:45.011Z,17.53
2022-12-13T08:04:54.653Z,18.93
2022-12-13T08:07:58.102Z,18.27
2022-12-13T08:11:06.283Z,18.33
2022-12-13T08:14:17.003Z,18.87
2022-12-13T08:17:20.493Z,17.70
2022-12-13T08:20:23.563Z,19.10
2022-12-13T08:23:26.690Z,18.23
2022-12-13T08:26:29.711Z,18.20
2022-12-13T08:29:36.739Z,19.80
2022-12-13T08:32:39.714Z,18.83
2022-12-13T08:35:58.826Z,19.23
2022-12-13T08:39:03.022Z,17.90
2022-12-13T08:42:14.726Z,17.40
2022-12-13T08:45:23.860Z,18.50
2022-12-13T08:48:26.833Z,18.60
2022-12-13T08:51:35.602Z,18.57
2022-12-13T08:54:38.780Z,19.00
2022-12-13T08:57:42.897Z,18.73
2022-12-13T09:00:48.272Z,19.67
2022-12-13T09:03:51.232Z,18.43
2022-12-13T09:06:55.188Z,18.90
2022-12-13T09:09:58.278Z,18.53
2022-12-13T09:13:11.659Z,18.17
2022-12-13T09:16:24.417Z,17.23
2022-12-13T09:19:27.815Z,18.50
2022-12-13T09:22:33.756Z,18.87
2022-12-13T09:25:37.830Z,19.67
2022-12-13T09:28:42.172Z,19.30
2022-12-13T09:31:52.923Z,19.57
2022-12-13T09:34:56.366Z,18.20
2022-12-13T09:37:59.340Z,17.40
2022-12-13T09:41:19.577Z,17.80
2022-12-13T09:44:30.828Z,19.83
2022-12-13T09:47:47.136Z,19.33
2022-12-13T09:50:58.538Z,17.57
2022-12-13T09:54:20.519Z,17.30
2022-12-13T09:57:30.977Z,18.47
2022-12-13T10:00:37.300Z,16.47
2022-12-13T10:03:46.528Z,19.07
2022-12-13T10:06:53.165Z,17.93
2022-12-13T10:10:01.545Z,18.73
2022-12-13T10:13:14.225Z,17.53
2022-12-13T10:16:27.120Z,17.47
2022-12-13T10:19:44.551Z,16.73
2022-12-13T10:23:08.019Z,17.87
2022-12-13T10:26:23.905Z,17.20
2022-12-13T10:29:28.038Z,17.50
2022-12-13T10:32:37.724Z,17.60
2022-12-13T10:35:42.425Z,17.33
2022-12-13T10:38:47.214Z,15.53
2022-12-13T10:41:55.881Z,17.10
2022-12-13T10:45:23.531Z,15.63
2022-12-13T10:48:38.919Z,16.17
2022-12-13T10:51:43.582Z,16.50
2022-12-13T10:54:49.539Z,16.10
2022-12-13T10:57:55.399Z,15.13
2022-12-13T11:01:12.412Z,16.60
2022-12-13T11:04:27.841Z,16.47
2022-12-13T11:07:34.574Z,16.43
2022-12-13T11:10:38.869Z,17.53
2022-12-13T11:13:47.580Z,16.50
2022-12-13T11:17:18.141Z,15.97
2022-12-13T11:20:25.163Z,15.97
2022-12-13T11:23:34.540Z,15.20
2022-12-13T11:26:43.050Z,16.00
2022-12-13T11:30:09.718Z,15.63
2022-12-13T11:33:25.394Z,15.27
2022-12-13T11:36:39.651Z,15.80
2022-12-13T11:39:51.248Z,15.70
2022-12-13T11:43:00.474Z,15.93
2022-12-13T11:46:12.220Z,14.90
2022-12-13T11:49:19.073Z,16.43
2022-12-13T11:52:28.415Z,15.10
2022-12-13T11:55:40.228Z,16.13
2022-12-13T11:59:08.522Z,16.07
2022-12-13T12:02:21.475Z,16.73
2022-12-13T12:05:31.776Z,17.43
2022-12-13T12:08:39.786Z,17.23
2022-12-13T12:11:55.284Z,16.37
2022-12-13T12:15:05.019Z,17.70
2022-12-13T12:18:20.907Z,15.70
2022-12-13T12:22:04.842Z,15.10
2022-12-13T12:25:24.736Z,15.53
2022-12-13T12:28:44.182Z,15.73
2022-12-13T12:31:56.657Z,15.00
2022-12-13T12:35:19.450Z,13.47
2022-12-13T12:38:53.883Z,14.57
2022-12-13T12:42:24.910Z,16.03
2022-12-13T12:45:56.972Z,16.07
2022-12-13T12:49:45.646Z,16.83
2022-12-13T12:53:01.221Z,17.40
2022-12-13T12:56:26.548Z,15.23
2022-12-13T12:59:40.417Z,14.60
2022-12-13T13:02:56.035Z,15.10
2022-12-13T13:06:10.842Z,14.53
2022-12-13T13:09:24.469Z,15.23
2022-12-13T13:12:30.796Z,14.23
2022-12-13T13:15:56.811Z,14.33
2022-12-13T13:19:02.194Z,13.87
2022-12-13T13:22:06.450Z,14.50
2022-12-13T13:25:32.851Z,14.57
2022-12-13T13:28:35.810Z,14.20
2022-12-13T13:32:01.220Z,14.30
2022-12-13T13:35:54.252Z,13.23
2022-12-13T13:39:01.136Z,14.10
2022-12-13T13:42:19.312Z,14.73
2022-12-13T13:45:24.152Z,14.07
2022-12-13T13:48:53.683Z,13.33
2022-12-13T13:52:26.626Z,14.70
2022-12-13T13:55:49.632Z,14.67
2022-12-13T13:59:47.008Z,13.83
2022-12-13T14:03:40.892Z,13.60
2022-12-13T14:07:40.559Z,12.57
2022-12-13T14:10:58.657Z,12.93
2022-12-13T14:14:42.878Z,14.60
2022-12-13T14:18:39.394Z,14.03
2022-12-13T14:21:57.628Z,15.87
2022-12-13T14:25:26.949Z,16.80
2022-12-13T14:28:43.805Z,14.30
2022-12-13T14:31:49.602Z,15.87
2022-12-13T14:34:54.105Z,15.63
2022-12-13T14:37:59.629Z,17.90
2022-12-13T14:41:05.953Z,19.27
2022-12-13T14:44:15.875Z,16.87
2022-12-13T14:47:20.008Z,18.10
2022-12-13T14:50:26.126Z,17.93
2022-12-13T14:53:34.390Z,16.50
2022-12-13T14:56:56.467Z,17.13
2022-12-13T15:00:21.701Z,16.00
2022-12-13T15:03:28.426Z,17.53
2022-12-13T15:06:31.983Z,18.30
2022-12-13T15:09:40.891Z,19.53
2022-12-13T15:12:46.484Z,17.20
2022-12-13T15:15:55.621Z,17.23
2022-12-13T15:19:10.992Z,17.20
2022-12-13T15:22:17.137Z,16.50
2022-12-13T15:25:24.942Z,15.77
2022-12-13T15:28:39.604Z,16.07
2022-12-13T15:31:42.685Z,15.70
2022-12-13T15:34:52.839Z,15.73
2022-12-13T15:37:56.339Z,15.63
2022-12-13T15:41:02.680Z,16.73
2022-12-13T15:44:18.122Z,17.37
2022-12-13T15:47:28.459Z,17.20
2022-12-13T15:50:36.062Z,17.33
2022-12-13T15:53:39.916Z,16.87
2022-12-13T15:57:01.735Z,17.53
2022-12-13T16:00:29.691Z,18.70
2022-12-13T16:03:42.739Z,18.57
2022-12-13T16:06:52.654Z,17.57
2022-12-13T16:09:56.758Z,19.00
2022-12-13T16:13:08.085Z,18.23
2022-12-13T16:16:28.494Z,18.00
2022-12-13T16:19:32.192Z,17.83
2022-12-13T16:22:35.166Z,18.90
2022-12-13T16:25:38.216Z,18.73
2022-12-13T16:28:41.430Z,18.90
2022-12-13T16:31:46.161Z,19.13
2022-12-13T16:34:49.303Z,18.43
2022-12-13T16:37:53.680Z,18.57
2022-12-13T16:41:08.373Z,18.87
2022-12-13T16:44:22.846Z,20.37
2022-12-13T16:47:40.360Z,19.93
2022-12-13T16:50:57.838Z,21.83
2022-12-13T16:54:01.255Z,19.83
2022-12-13T16:57:04.407Z,22.37
2022-12-13T17:00:11.531Z,19.23
2022-12-13T17:03:16.390Z,21.80
2022-12-13T17:06:24.734Z,20.57
2022-12-13T17:09:27.723Z,23.80
2022-12-13T17:12:31.468Z,24.17
2022-12-13T17:15:34.603Z,23.83
2022-12-13T17:18:41.841Z,22.97
2022-12-13T17:21:44.853Z,23.43
2022-12-13T17:24:47.966Z,22.07
2022-12-13T17:27:51.084Z,23.13
2022-12-13T17:30:55.443Z,23.17
2022-12-13T17:33:59.961Z,24.10
2022-12-13T17:37:07.093Z,22.90
2022-12-13T17:40:13.300Z,22.87
2022-12-13T17:43:26.278Z,26.00
2022-12-13T17:46:36.204Z,24.83
2022-12-13T17:49:40.543Z,27.03
2022-12-13T17:52:43.559Z,26.00
2022-12-13T17:55:55.277Z,24.67
2022-12-13T17:58:58.235Z,23.50
2022-12-13T18:02:01.232Z,24.90
2022-12-13T18:05:07.082Z,25.63
2022-12-13T18:08:10.195Z,24.67
2022-12-13T18:14:37.979Z,25.57
2022-12-13T18:18:10.020Z,23.77
2022-12-13T18:21:07.146Z,22.20
2022-12-13T18:24:11.199Z,24.30
2022-12-13T18:27:14.202Z,21.37
2022-12-13T18:30:17.255Z,22.43
2022-12-13T18:33:20.387Z,20.87
2022-12-13T18:36:25.985Z,22.17
2022-12-13T18:39:29.103Z,21.47
2022-12-13T18:42:32.151Z,21.90
2022-12-13T18:45:35.501Z,21.07
2022-12-13T18:48:38.837Z,23.77
2022-12-13T18:51:43.632Z,22.60
2022-12-13T18:54:54.190Z,23.20
2022-12-13T18:57:57.742Z,22.37
2022-12-13T19:01:01.708Z,21.17
2022-12-13T19:04:04.754Z,22.70
2022-12-13T19:07:10.068Z,22.33
2022-12-13T19:10:13.058Z,22.03
2022-12-13T19:13:16.301Z,22.07
2022-12-13T19:16:22.454Z,21.37
2022-12-13T19:19:25.589Z,20.67
2022-12-13T19:22:30.414Z,21.03
2022-12-13T19:25:33.420Z,21.07
2022-12-13T19:28:36.762Z,21.93
2022-12-13T19:31:40.386Z,23.00
2022-12-13T19:34:43.527Z,21.80
2022-12-13T19:37:48.035Z,20.63
2022-12-13T19:40:52.592Z,19.70
2022-12-13T19:43:56.001Z,20.57
2022-12-13T19:46:59.845Z,21.73
2022-12-13T19:50:03.054Z,20.70
2022-12-13T19:53:07.819Z,22.67
2022-12-13T19:56:13.522Z,20.80
2022-12-13T19:59:16.657Z,22.63
2022-12-13T20:02:19.964Z,22.87
2022-12-13T20:05:23.052Z,21.07
2022-12-13T20:08:28.049Z,20.47
2022-12-13T20:11:31.391Z,21.33
2022-12-13T20:14:34.385Z,20.73
2022-12-13T20:17:37.561Z,22.10
2022-12-13T20:21:09.825Z,24.23
2022-12-13T20:24:06.474Z,23.07
2022-12-13T20:27:15.399Z,22.30
2022-12-13T20:30:18.673Z,23.10
2022-12-13T20:33:21.667Z,23.60
2022-12-13T20:36:27.518Z,23.27
2022-12-13T20:39:32.178Z,21.40
2022-12-13T20:42:35.583Z,23.43
2022-12-13T20:45:38.717Z,25.40
2022-12-13T20:48:44.623Z,24.57
2022-12-13T20:51:47.696Z,23.90
2022-12-13T20:54:52.031Z,34.67
2022-12-13T20:57:55.069Z,30.93
2022-12-13T21:00:58.413Z,28.30
2022-12-13T21:04:05.296Z,30.90
2022-12-13T21:07:08.543Z,30.23
2022-12-13T21:10:13.076Z,36.57
2022-12-13T21:13:16.050Z,31.20
2022-12-13T21:16:20.056Z,23.57
2022-12-13T21:19:25.340Z,22.03
2022-12-13T21:22:28.290Z,22.10
2022-12-13T21:25:32.577Z,22.80
2022-12-13T21:28:35.635Z,30.87
2022-12-13T21:31:40.455Z,24.30
2022-12-13T21:34:43.477Z,26.87
2022-12-13T21:37:48.443Z,24.83
2022-12-13T21:40:52.801Z,21.70
2022-12-13T21:43:56.959Z,22.53
2022-12-13T21:47:15.342Z,21.70
2022-12-13T21:50:18.516Z,19.67
2022-12-13T21:53:23.129Z,21.90
2022-12-13T21:56:47.766Z,20.43
2022-12-13T21:59:50.855Z,21.93
2022-12-13T22:02:54.208Z,20.57
2022-12-13T22:05:57.890Z,20.70
2022-12-13T22:09:01.078Z,21.33
2022-12-13T22:12:09.153Z,23.23
2022-12-13T22:15:14.661Z,22.10
2022-12-13T22:18:17.580Z,21.30
2022-12-13T22:21:20.641Z,19.97
2022-12-13T22:24:23.601Z,22.77
2022-12-13T22:27:28.242Z,21.93
2022-12-13T22:30:31.197Z,21.47
2022-12-13T22:33:34.203Z,23.13
2022-12-13T22:36:37.355Z,23.40
2022-12-13T22:39:40.713Z,22.90
2022-12-13T22:42:48.302Z,23.90
2022-12-13T22:45:51.699Z,22.37
2022-12-13T22:48:56.125Z,24.63
2022-12-13T22:51:59.091Z,23.90
2022-12-13T22:55:04.931Z,24.90
2022-12-13T22:58:09.280Z,24.67
2022-12-13T23:01:16.496Z,31.50
2022-12-13T23:04:19.588Z,26.83
2022-12-13T23:07:22.665Z,29.83
2022-12-13T23:10:43.620Z,26.70
2022-12-13T23:13:52.612Z,25.30
2022-12-13T23:16:55.790Z,22.70
2022-12-13T23:19:58.864Z,22.60
2022-12-13T23:23:02.056Z,23.63
2022-12-13T23:26:11.082Z,22.40
2022-12-13T23:29:18.601Z,25.60
2022-12-13T23:32:21.610Z,23.40
2022-12-13T23:35:24.661Z,22.73
2022-12-13T23:38:28.252Z,23.30
2022-12-13T23:41:34.078Z,22.30
2022-12-13T23:44:39.489Z,21.70
2022-12-13T23:47:42.522Z,21.73
2022-12-13T23:50:47.196Z,24.70
2022-12-13T23:53:50.569Z,23.00
2022-12-13T23:56:53.759Z,22.63
